sensor_id;sensor_type;location;lat;lon;timestamp;pressure;altitude;pressure_sealevel;temperature;humidity
53514;BME280;39768;54.148;12.174;2023-07-29T00:03:09;100586.47;;;15.63;90.33
53514;BME280;39768;54.148;12.174;2023-07-29T00:07:11;100586.06;;;15.71;90.18
53514;BME280;39768;54.148;12.174;2023-07-29T00:11:12;100589.69;;;16.16;85.59
53514;BME280;39768;54.148;12.174;2023-07-29T00:15:14;100591.88;;;16.25;84.24
53514;BME280;39768;54.148;12.174;2023-07-29T00:19:16;100593.06;;;16.35;84.31
53514;BME280;39768;54.148;12.174;2023-07-29T00:23:17;100597.53;;;16.50;82.43
53514;BME280;39768;54.148;12.174;2023-07-29T00:27:23;100602.09;;;16.64;81.09
53514;BME280;39768;54.148;12.174;2023-07-29T00:31:25;100595.56;;;16.52;81.16
53514;BME280;39768;54.148;12.174;2023-07-29T00:35:26;100594.44;;;16.70;79.14
53514;BME280;39768;54.148;12.174;2023-07-29T00:39:28;100586.94;;;16.75;79.22
53514;BME280;39768;54.148;12.174;2023-07-29T00:43:29;100583.00;;;16.81;78.71
53514;BME280;39768;54.148;12.174;2023-07-29T00:47:31;100574.09;;;16.79;78.17
53514;BME280;39768;54.148;12.174;2023-07-29T00:51:33;100583.19;;;16.92;77.46
53514;BME280;39768;54.148;12.174;2023-07-29T00:55:34;100589.44;;;16.93;76.73
53514;BME280;39768;54.148;12.174;2023-07-29T00:59:36;100582.66;;;16.57;77.60
53514;BME280;39768;54.148;12.174;2023-07-29T01:03:37;100582.31;;;16.77;77.46
53514;BME280;39768;54.148;12.174;2023-07-29T01:08:02;100574.47;;;16.15;83.79
53514;BME280;39768;54.148;12.174;2023-07-29T01:12:12;100580.38;;;16.65;79.39
53514;BME280;39768;54.148;12.174;2023-07-29T01:16:32;100587.53;;;16.80;77.57
53514;BME280;39768;54.148;12.174;2023-07-29T01:20:38;100577.88;;;16.91;76.79
53514;BME280;39768;54.148;12.174;2023-07-29T01:24:41;100574.09;;;16.93;76.73
53514;BME280;39768;54.148;12.174;2023-07-29T01:28:43;100572.38;;;16.92;76.20
53514;BME280;39768;54.148;12.174;2023-07-29T01:33:09;100562.47;;;16.04;84.23
53514;BME280;39768;54.148;12.174;2023-07-29T01:37:19;100555.50;;;15.23;89.54
53514;BME280;39768;54.148;12.174;2023-07-29T01:41:24;100552.88;;;15.85;87.33
53514;BME280;39768;54.148;12.174;2023-07-29T01:45:26;100553.97;;;15.96;83.84
53514;BME280;39768;54.148;12.174;2023-07-29T01:49:28;100564.81;;;15.33;90.05
53514;BME280;39768;54.148;12.174;2023-07-29T01:53:29;100563.50;;;15.25;89.99
53514;BME280;39768;54.148;12.174;2023-07-29T01:57:31;100561.84;;;14.41;94.94
53514;BME280;39768;54.148;12.174;2023-07-29T02:01:32;100563.44;;;14.78;95.49
53514;BME280;39768;54.148;12.174;2023-07-29T02:05:34;100564.13;;;15.14;91.84
53514;BME280;39768;54.148;12.174;2023-07-29T02:09:36;100557.59;;;15.02;91.20
53514;BME280;39768;54.148;12.174;2023-07-29T02:13:37;100561.59;;;15.11;88.90
53514;BME280;39768;54.148;12.174;2023-07-29T02:17:41;100553.94;;;15.35;89.42
53514;BME280;39768;54.148;12.174;2023-07-29T02:21:44;100554.41;;;15.59;88.35
53514;BME280;39768;54.148;12.174;2023-07-29T02:25:45;100551.56;;;15.92;86.04
53514;BME280;39768;54.148;12.174;2023-07-29T02:29:47;100547.94;;;16.07;85.06
53514;BME280;39768;54.148;12.174;2023-07-29T02:33:49;100552.69;;;14.93;87.49
53514;BME280;39768;54.148;12.174;2023-07-29T02:37:51;100552.75;;;14.26;94.73
53514;BME280;39768;54.148;12.174;2023-07-29T02:41:55;100558.06;;;14.27;95.75
53514;BME280;39768;54.148;12.174;2023-07-29T02:45:57;100558.00;;;14.12;96.83
53514;BME280;39768;54.148;12.174;2023-07-29T02:49:58;100554.16;;;13.64;100.00
53514;BME280;39768;54.148;12.174;2023-07-29T02:54:00;100559.31;;;14.20;97.68
53514;BME280;39768;54.148;12.174;2023-07-29T02:58:02;100558.69;;;14.15;96.17
53514;BME280;39768;54.148;12.174;2023-07-29T03:02:03;100552.50;;;13.79;100.00
53514;BME280;39768;54.148;12.174;2023-07-29T03:06:07;100558.00;;;14.12;100.00
53514;BME280;39768;54.148;12.174;2023-07-29T03:10:09;100546.34;;;14.28;97.91
53514;BME280;39768;54.148;12.174;2023-07-29T03:14:12;100552.41;;;14.66;96.99
53514;BME280;39768;54.148;12.174;2023-07-29T03:18:15;100564.63;;;15.05;93.24
53514;BME280;39768;54.148;12.174;2023-07-29T03:22:17;100556.03;;;15.30;92.17
53514;BME280;39768;54.148;12.174;2023-07-29T03:26:19;100556.47;;;15.54;91.76
53514;BME280;39768;54.148;12.174;2023-07-29T03:30:21;100544.78;;;15.85;90.85
53514;BME280;39768;54.148;12.174;2023-07-29T03:34:24;100545.97;;;15.18;95.47
53514;BME280;39768;54.148;12.174;2023-07-29T03:38:25;100552.16;;;14.71;100.00
53514;BME280;39768;54.148;12.174;2023-07-29T03:42:27;100546.81;;;15.50;95.58
53514;BME280;39768;54.148;12.174;2023-07-29T03:46:28;100544.38;;;16.06;91.38
53514;BME280;39768;54.148;12.174;2023-07-29T03:50:35;100548.13;;;16.34;91.57
53514;BME280;39768;54.148;12.174;2023-07-29T03:54:37;100533.38;;;16.54;92.48
53514;BME280;39768;54.148;12.174;2023-07-29T03:58:39;100538.97;;;16.51;95.67
53514;BME280;39768;54.148;12.174;2023-07-29T04:02:41;100540.28;;;15.99;96.64
53514;BME280;39768;54.148;12.174;2023-07-29T04:06:44;100536.72;;;15.22;100.00
53514;BME280;39768;54.148;12.174;2023-07-29T04:10:46;100525.00;;;16.14;97.85
53514;BME280;39768;54.148;12.174;2023-07-29T04:14:48;100522.38;;;16.42;95.87
53514;BME280;39768;54.148;12.174;2023-07-29T04:18:50;100521.31;;;16.88;93.85
53514;BME280;39768;54.148;12.174;2023-07-29T04:22:52;100509.25;;;17.07;93.78
53514;BME280;39768;54.148;12.174;2023-07-29T04:26:53;100490.84;;;17.54;93.80
53514;BME280;39768;54.148;12.174;2023-07-29T04:30:55;100496.84;;;18.11;92.50
53514;BME280;39768;54.148;12.174;2023-07-29T04:34:56;100499.91;;;19.06;88.14
53514;BME280;39768;54.148;12.174;2023-07-29T04:38:58;100501.53;;;19.93;81.34
53514;BME280;39768;54.148;12.174;2023-07-29T04:43:00;100508.53;;;19.37;83.85
53514;BME280;39768;54.148;12.174;2023-07-29T04:47:02;100514.66;;;18.66;90.11
53514;BME280;39768;54.148;12.174;2023-07-29T04:51:04;100508.88;;;18.45;92.15
53514;BME280;39768;54.148;12.174;2023-07-29T04:55:05;100521.84;;;18.02;97.33
53514;BME280;39768;54.148;12.174;2023-07-29T04:59:07;100525.47;;;18.28;95.12
53514;BME280;39768;54.148;12.174;2023-07-29T05:03:09;100520.16;;;18.26;94.32
53514;BME280;39768;54.148;12.174;2023-07-29T05:07:11;100514.75;;;18.39;94.05
53514;BME280;39768;54.148;12.174;2023-07-29T05:11:13;100511.25;;;18.37;95.21
53514;BME280;39768;54.148;12.174;2023-07-29T05:15:14;100509.72;;;18.07;97.44
53514;BME280;39768;54.148;12.174;2023-07-29T05:19:16;100507.94;;;18.59;95.53
53514;BME280;39768;54.148;12.174;2023-07-29T05:23:18;100514.41;;;18.43;97.12
53514;BME280;39768;54.148;12.174;2023-07-29T05:27:19;100514.94;;;18.10;100.00
53514;BME280;39768;54.148;12.174;2023-07-29T05:31:22;100512.97;;;18.00;100.00
53514;BME280;39768;54.148;12.174;2023-07-29T05:35:24;100523.84;;;18.25;100.00
53514;BME280;39768;54.148;12.174;2023-07-29T05:39:26;100525.13;;;18.32;98.54
53514;BME280;39768;54.148;12.174;2023-07-29T05:43:27;100527.53;;;18.75;96.78
53514;BME280;39768;54.148;12.174;2023-07-29T05:47:29;100520.47;;;18.47;100.00
53514;BME280;39768;54.148;12.174;2023-07-29T05:51:30;100521.50;;;18.59;100.00
53514;BME280;39768;54.148;12.174;2023-07-29T05:55:32;100518.22;;;18.41;100.00
53514;BME280;39768;54.148;12.174;2023-07-29T05:59:33;100503.84;;;16.93;100.00
53514;BME280;39768;54.148;12.174;2023-07-29T06:03:35;100495.34;;;17.40;100.00
53514;BME280;39768;54.148;12.174;2023-07-29T06:07:37;100483.19;;;17.06;100.00
53514;BME280;39768;54.148;12.174;2023-07-29T06:11:39;100472.38;;;16.92;100.00
53514;BME280;39768;54.148;12.174;2023-07-29T06:15:40;100475.16;;;17.05;100.00
53514;BME280;39768;54.148;12.174;2023-07-29T06:19:42;100469.75;;;17.59;100.00
53514;BME280;39768;54.148;12.174;2023-07-29T06:23:44;100470.97;;;18.58;100.00
53514;BME280;39768;54.148;12.174;2023-07-29T06:27:45;100472.75;;;19.19;100.00
53514;BME280;39768;54.148;12.174;2023-07-29T06:31:47;100466.81;;;19.27;100.00
53514;BME280;39768;54.148;12.174;2023-07-29T06:35:48;100461.31;;;19.63;100.00
53514;BME280;39768;54.148;12.174;2023-07-29T06:39:50;100453.75;;;19.55;99.71
53514;BME280;39768;54.148;12.174;2023-07-29T06:43:51;100452.44;;;19.72;100.00
53514;BME280;39768;54.148;12.174;2023-07-29T06:47:53;100440.50;;;19.75;100.00
53514;BME280;39768;54.148;12.174;2023-07-29T06:51:54;100445.94;;;20.43;98.18
53514;BME280;39768;54.148;12.174;2023-07-29T06:55:56;100448.25;;;20.14;100.00
53514;BME280;39768;54.148;12.174;2023-07-29T06:59:58;100444.25;;;19.96;100.00
53514;BME280;39768;54.148;12.174;2023-07-29T07:03:59;100449.63;;;21.09;94.53
53514;BME280;39768;54.148;12.174;2023-07-29T07:08:01;100442.13;;;20.90;94.49
53514;BME280;39768;54.148;12.174;2023-07-29T07:12:03;100445.22;;;20.97;95.44
53514;BME280;39768;54.148;12.174;2023-07-29T07:16:05;100434.06;;;20.55;97.64
53514;BME280;39768;54.148;12.174;2023-07-29T07:20:07;100437.88;;;21.09;93.07
53514;BME280;39768;54.148;12.174;2023-07-29T07:24:08;100437.84;;;21.20;94.93
53514;BME280;39768;54.148;12.174;2023-07-29T07:28:10;100436.47;;;21.37;91.86
53514;BME280;39768;54.148;12.174;2023-07-29T07:32:12;100425.94;;;21.64;90.96
53514;BME280;39768;54.148;12.174;2023-07-29T07:36:13;100428.34;;;21.78;89.96
53514;BME280;39768;54.148;12.174;2023-07-29T07:40:15;100423.63;;;21.80;92.77
53514;BME280;39768;54.148;12.174;2023-07-29T07:44:16;100435.03;;;22.36;85.51
53514;BME280;39768;54.148;12.174;2023-07-29T07:48:19;100435.03;;;22.36;82.94
53514;BME280;39768;54.148;12.174;2023-07-29T07:52:21;100431.94;;;22.20;84.56
53514;BME280;39768;54.148;12.174;2023-07-29T07:56:23;100432.63;;;22.43;84.62
53514;BME280;39768;54.148;12.174;2023-07-29T08:00:24;100432.53;;;22.75;83.87
53514;BME280;39768;54.148;12.174;2023-07-29T08:04:26;100428.91;;;23.24;80.03
53514;BME280;39768;54.148;12.174;2023-07-29T08:08:27;100430.06;;;23.31;78.96
53514;BME280;39768;54.148;12.174;2023-07-29T08:12:29;100429.72;;;23.15;79.42
53514;BME280;39768;54.148;12.174;2023-07-29T08:16:31;100440.00;;;22.83;80.39
53514;BME280;39768;54.148;12.174;2023-07-29T08:20:33;100443.19;;;22.88;79.43
53514;BME280;39768;54.148;12.174;2023-07-29T08:24:34;100440.94;;;23.12;82.41
53514;BME280;39768;54.148;12.174;2023-07-29T08:28:39;100435.59;;;23.11;80.05
53514;BME280;39768;54.148;12.174;2023-07-29T08:32:41;100428.53;;;22.89;80.70
53514;BME280;39768;54.148;12.174;2023-07-29T08:36:43;100430.09;;;22.82;78.15
53514;BME280;39768;54.148;12.174;2023-07-29T08:41:03;100428.19;;;23.99;76.04
53514;BME280;39768;54.148;12.174;2023-07-29T08:45:07;100415.94;;;24.13;71.77
53514;BME280;39768;54.148;12.174;2023-07-29T08:49:13;100429.94;;;23.62;70.41
53514;BME280;39768;54.148;12.174;2023-07-29T08:53:15;100428.66;;;23.47;71.64
53514;BME280;39768;54.148;12.174;2023-07-29T08:57:17;100427.31;;;23.22;76.13
53514;BME280;39768;54.148;12.174;2023-07-29T09:01:20;100432.06;;;23.68;73.58
53514;BME280;39768;54.148;12.174;2023-07-29T09:05:21;100425.19;;;23.45;70.22
53514;BME280;39768;54.148;12.174;2023-07-29T09:09:23;100427.88;;;22.76;75.15
53514;BME280;39768;54.148;12.174;2023-07-29T09:13:24;100437.84;;;23.55;71.25
53514;BME280;39768;54.148;12.174;2023-07-29T09:17:31;100418.81;;;23.15;73.44
53514;BME280;39768;54.148;12.174;2023-07-29T09:21:32;100414.72;;;24.35;67.48
53514;BME280;39768;54.148;12.174;2023-07-29T09:25:34;100417.72;;;24.41;63.34
53514;BME280;39768;54.148;12.174;2023-07-29T09:29:36;100419.72;;;24.49;67.55
53514;BME280;39768;54.148;12.174;2023-07-29T09:33:37;100404.34;;;24.38;66.13
53514;BME280;39768;54.148;12.174;2023-07-29T09:37:39;100403.72;;;24.54;66.32
53514;BME280;39768;54.148;12.174;2023-07-29T09:41:41;100405.59;;;24.54;65.08
53514;BME280;39768;54.148;12.174;2023-07-29T09:45:42;100411.47;;;24.59;63.33
53514;BME280;39768;54.148;12.174;2023-07-29T09:49:44;100408.38;;;24.99;63.64
53514;BME280;39768;54.148;12.174;2023-07-29T09:53:46;100400.53;;;24.12;65.60
53514;BME280;39768;54.148;12.174;2023-07-29T09:57:48;100406.75;;;23.66;68.15
53514;BME280;39768;54.148;12.174;2023-07-29T10:01:54;100385.72;;;24.15;64.12
53514;BME280;39768;54.148;12.174;2023-07-29T10:06:00;100390.97;;;23.69;63.05
53514;BME280;39768;54.148;12.174;2023-07-29T10:10:03;100395.00;;;23.85;64.98
53514;BME280;39768;54.148;12.174;2023-07-29T10:14:05;100390.59;;;24.21;64.94
53514;BME280;39768;54.148;12.174;2023-07-29T10:18:09;100389.78;;;24.75;61.81
53514;BME280;39768;54.148;12.174;2023-07-29T10:22:13;100396.91;;;24.86;58.49
53514;BME280;39768;54.148;12.174;2023-07-29T10:26:19;100391.56;;;24.66;56.21
53514;BME280;39768;54.148;12.174;2023-07-29T10:30:23;100390.13;;;25.17;55.90
53514;BME280;39768;54.148;12.174;2023-07-29T10:34:25;100387.50;;;24.98;52.76
53514;BME280;39768;54.148;12.174;2023-07-29T10:38:27;100377.97;;;25.02;53.30
53514;BME280;39768;54.148;12.174;2023-07-29T10:42:29;100380.66;;;25.11;54.38
53514;BME280;39768;54.148;12.174;2023-07-29T10:46:34;100384.72;;;24.80;53.62
53514;BME280;39768;54.148;12.174;2023-07-29T10:50:36;100369.25;;;24.34;55.20
53514;BME280;39768;54.148;12.174;2023-07-29T10:54:46;100362.09;;;24.60;55.26
53514;BME280;39768;54.148;12.174;2023-07-29T10:58:48;100354.44;;;24.64;55.56
53514;BME280;39768;54.148;12.174;2023-07-29T11:03:00;100353.25;;;24.39;55.70
53514;BME280;39768;54.148;12.174;2023-07-29T11:11:09;100345.22;;;24.65;58.77
53514;BME280;39768;54.148;12.174;2023-07-29T11:19:38;100327.34;;;23.96;71.21
53514;BME280;39768;54.148;12.174;2023-07-29T11:24:00;100337.28;;;24.34;69.49
53514;BME280;39768;54.148;12.174;2023-07-29T11:28:21;100341.94;;;23.68;70.57
53514;BME280;39768;54.148;12.174;2023-07-29T11:32:44;100359.28;;;22.70;79.96
53514;BME280;39768;54.148;12.174;2023-07-29T11:37:06;100363.44;;;22.34;84.37
53514;BME280;39768;54.148;12.174;2023-07-29T11:41:27;100358.97;;;22.03;84.55
53514;BME280;39768;54.148;12.174;2023-07-29T11:45:49;100376.47;;;20.95;93.54
53514;BME280;39768;54.148;12.174;2023-07-29T11:50:13;100379.66;;;19.77;95.32
53514;BME280;39768;54.148;12.174;2023-07-29T11:54:39;100379.13;;;19.02;100.00
53514;BME280;39768;54.148;12.174;2023-07-29T11:59:01;100391.38;;;18.71;97.62
53514;BME280;39768;54.148;12.174;2023-07-29T12:03:25;100433.00;;;18.70;100.00
53514;BME280;39768;54.148;12.174;2023-07-29T12:07:47;100427.59;;;18.70;100.00
53514;BME280;39768;54.148;12.174;2023-07-29T12:20:51;100412.19;;;18.71;100.00
53514;BME280;39768;54.148;12.174;2023-07-29T12:24:52;100388.28;;;18.88;98.99
53514;BME280;39768;54.148;12.174;2023-07-29T12:28:55;100400.06;;;18.64;98.90
53514;BME280;39768;54.148;12.174;2023-07-29T12:32:57;100415.53;;;17.21;100.00
53514;BME280;39768;54.148;12.174;2023-07-29T12:37:02;100421.75;;;18.38;100.00
53514;BME280;39768;54.148;12.174;2023-07-29T12:41:09;100417.63;;;17.03;100.00
53514;BME280;39768;54.148;12.174;2023-07-29T12:45:11;100408.34;;;16.09;100.00
53514;BME280;39768;54.148;12.174;2023-07-29T12:49:12;100400.78;;;16.71;100.00
53514;BME280;39768;54.148;12.174;2023-07-29T12:53:14;100404.00;;;17.04;100.00
53514;BME280;39768;54.148;12.174;2023-07-29T12:57:15;100392.75;;;18.15;100.00
53514;BME280;39768;54.148;12.174;2023-07-29T13:01:17;100382.59;;;17.80;100.00
53514;BME280;39768;54.148;12.174;2023-07-29T13:05:20;100383.91;;;18.99;100.00
53514;BME280;39768;54.148;12.174;2023-07-29T13:09:21;100383.72;;;18.52;100.00
53514;BME280;39768;54.148;12.174;2023-07-29T13:13:23;100381.16;;;18.75;100.00
53514;BME280;39768;54.148;12.174;2023-07-29T13:17:24;100381.31;;;19.56;100.00
53514;BME280;39768;54.148;12.174;2023-07-29T13:21:26;100373.06;;;20.04;100.00
53514;BME280;39768;54.148;12.174;2023-07-29T13:25:27;100381.44;;;20.56;99.41
53514;BME280;39768;54.148;12.174;2023-07-29T13:29:29;100377.03;;;20.67;100.00
53514;BME280;39768;54.148;12.174;2023-07-29T13:33:30;100377.56;;;20.92;98.29
53514;BME280;39768;54.148;12.174;2023-07-29T13:37:35;100375.88;;;21.12;96.82
53514;BME280;39768;54.148;12.174;2023-07-29T13:41:36;100373.28;;;21.54;93.61
53514;BME280;39768;54.148;12.174;2023-07-29T13:45:38;100378.16;;;22.22;94.04
53514;BME280;39768;54.148;12.174;2023-07-29T13:49:40;100377.66;;;22.38;92.54
53514;BME280;39768;54.148;12.174;2023-07-29T13:53:41;100382.47;;;22.55;91.83
53514;BME280;39768;54.148;12.174;2023-07-29T13:57:43;100376.28;;;22.23;93.53
53514;BME280;39768;54.148;12.174;2023-07-29T14:01:44;100368.84;;;21.53;99.30
53514;BME280;39768;54.148;12.174;2023-07-29T14:05:46;100375.44;;;21.60;98.93
53514;BME280;39768;54.148;12.174;2023-07-29T14:09:47;100382.41;;;22.46;95.24
53514;BME280;39768;54.148;12.174;2023-07-29T14:13:49;100374.50;;;22.73;92.93
53514;BME280;39768;54.148;12.174;2023-07-29T14:17:50;100358.00;;;22.75;91.51
53514;BME280;39768;54.148;12.174;2023-07-29T14:21:52;100365.91;;;22.87;92.93
53514;BME280;39768;54.148;12.174;2023-07-29T14:25:53;100369.00;;;23.32;90.77
53514;BME280;39768;54.148;12.174;2023-07-29T14:29:55;100358.59;;;22.88;95.53
53514;BME280;39768;54.148;12.174;2023-07-29T14:33:56;100350.00;;;23.12;91.99
53514;BME280;39768;54.148;12.174;2023-07-29T14:37:59;100343.56;;;23.22;90.44
53514;BME280;39768;54.148;12.174;2023-07-29T14:42:00;100345.97;;;23.73;87.34
53514;BME280;39768;54.148;12.174;2023-07-29T14:46:02;100349.41;;;23.66;89.98
53514;BME280;39768;54.148;12.174;2023-07-29T14:50:04;100355.00;;;23.93;92.36
53514;BME280;39768;54.148;12.174;2023-07-29T14:54:06;100349.00;;;24.54;83.93
53514;BME280;39768;54.148;12.174;2023-07-29T14:58:07;100349.59;;;24.21;83.36
53514;BME280;39768;54.148;12.174;2023-07-29T15:02:09;100351.38;;;24.39;82.55
53514;BME280;39768;54.148;12.174;2023-07-29T15:06:10;100341.19;;;24.32;82.03
53514;BME280;39768;54.148;12.174;2023-07-29T15:10:15;100351.31;;;24.22;83.66
53514;BME280;39768;54.148;12.174;2023-07-29T15:14:17;100331.66;;;24.08;82.51
53514;BME280;39768;54.148;12.174;2023-07-29T15:18:18;100330.22;;;24.04;81.56
53514;BME280;39768;54.148;12.174;2023-07-29T15:22:20;100328.78;;;24.00;83.35
53514;BME280;39768;54.148;12.174;2023-07-29T15:26:22;100333.00;;;23.75;87.16
53514;BME280;39768;54.148;12.174;2023-07-29T15:30:23;100332.31;;;23.64;86.07
53514;BME280;39768;54.148;12.174;2023-07-29T15:34:25;100329.13;;;23.78;85.35
53514;BME280;39768;54.148;12.174;2023-07-29T15:38:27;100327.97;;;24.82;78.02
53514;BME280;39768;54.148;12.174;2023-07-29T15:42:28;100333.03;;;24.77;74.46
53514;BME280;39768;54.148;12.174;2023-07-29T15:46:30;100324.50;;;25.07;74.78
53514;BME280;39768;54.148;12.174;2023-07-29T15:50:31;100315.34;;;24.17;76.52
53514;BME280;39768;54.148;12.174;2023-07-29T15:54:33;100317.72;;;24.29;77.55
53514;BME280;39768;54.148;12.174;2023-07-29T15:58:34;100327.16;;;23.61;79.11
53514;BME280;39768;54.148;12.174;2023-07-29T16:02:36;100326.03;;;23.44;80.22
53514;BME280;39768;54.148;12.174;2023-07-29T16:06:39;100319.34;;;23.85;79.54
53514;BME280;39768;54.148;12.174;2023-07-29T16:10:41;100321.97;;;23.58;78.72
53514;BME280;39768;54.148;12.174;2023-07-29T16:14:42;100311.53;;;24.00;79.12
53514;BME280;39768;54.148;12.174;2023-07-29T16:18:44;100322.44;;;23.24;83.49
53514;BME280;39768;54.148;12.174;2023-07-29T16:22:45;100330.44;;;24.21;77.91
53514;BME280;39768;54.148;12.174;2023-07-29T16:26:47;100338.28;;;24.06;79.90
53514;BME280;39768;54.148;12.174;2023-07-29T16:30:51;100342.38;;;23.15;85.61
53514;BME280;39768;54.148;12.174;2023-07-29T16:35:01;100351.28;;;23.85;74.29
53514;BME280;39768;54.148;12.174;2023-07-29T16:39:02;100356.25;;;23.99;70.55
53514;BME280;39768;54.148;12.174;2023-07-29T16:43:04;100360.06;;;23.59;73.70
53514;BME280;39768;54.148;12.174;2023-07-29T16:47:06;100348.09;;;24.26;64.52
53514;BME280;39768;54.148;12.174;2023-07-29T16:51:08;100368.19;;;24.72;59.43
53514;BME280;39768;54.148;12.174;2023-07-29T16:55:12;100368.47;;;24.51;58.79
53514;BME280;39768;54.148;12.174;2023-07-29T16:59:14;100371.50;;;24.75;56.48
53514;BME280;39768;54.148;12.174;2023-07-29T17:03:16;100380.88;;;26.83;48.05
53514;BME280;39768;54.148;12.174;2023-07-29T17:07:19;100386.53;;;27.64;44.64
53514;BME280;39768;54.148;12.174;2023-07-29T17:11:21;100395.63;;;27.40;44.15
53514;BME280;39768;54.148;12.174;2023-07-29T17:15:22;100397.88;;;27.93;42.17
53514;BME280;39768;54.148;12.174;2023-07-29T17:19:24;100401.44;;;26.79;44.45
53514;BME280;39768;54.148;12.174;2023-07-29T17:23:25;100394.31;;;25.57;46.16
53514;BME280;39768;54.148;12.174;2023-07-29T17:27:27;100393.66;;;25.63;47.03
53514;BME280;39768;54.148;12.174;2023-07-29T17:31:28;100397.56;;;23.67;52.38
53514;BME280;39768;54.148;12.174;2023-07-29T17:35:30;100395.34;;;24.09;53.59
53514;BME280;39768;54.148;12.174;2023-07-29T17:39:32;100395.38;;;23.99;52.61
53514;BME280;39768;54.148;12.174;2023-07-29T17:43:33;100399.66;;;25.13;50.74
53514;BME280;39768;54.148;12.174;2023-07-29T17:47:35;100400.31;;;24.42;52.53
53514;BME280;39768;54.148;12.174;2023-07-29T17:51:36;100408.22;;;23.89;55.68
53514;BME280;39768;54.148;12.174;2023-07-29T17:55:38;100417.72;;;23.47;59.25
53514;BME280;39768;54.148;12.174;2023-07-29T17:59:40;100414.63;;;23.01;63.37
53514;BME280;39768;54.148;12.174;2023-07-29T18:03:42;100407.00;;;22.25;71.63
53514;BME280;39768;54.148;12.174;2023-07-29T18:07:43;100415.03;;;23.06;66.89
53514;BME280;39768;54.148;12.174;2023-07-29T18:11:45;100412.22;;;24.04;61.22
53514;BME280;39768;54.148;12.174;2023-07-29T18:15:50;100416.56;;;23.39;61.95
53514;BME280;39768;54.148;12.174;2023-07-29T18:19:52;100416.03;;;22.96;67.83
53514;BME280;39768;54.148;12.174;2023-07-29T18:23:53;100421.09;;;23.10;66.58
53514;BME280;39768;54.148;12.174;2023-07-29T18:27:55;100425.97;;;22.97;68.91
53514;BME280;39768;54.148;12.174;2023-07-29T18:31:56;100427.34;;;22.72;73.76
53514;BME280;39768;54.148;12.174;2023-07-29T18:35:58;100435.06;;;22.77;73.66
53514;BME280;39768;54.148;12.174;2023-07-29T18:40:02;100445.84;;;22.48;74.83
53514;BME280;39768;54.148;12.174;2023-07-29T18:44:04;100453.34;;;22.25;77.46
53514;BME280;39768;54.148;12.174;2023-07-29T18:48:05;100448.16;;;22.01;79.33
53514;BME280;39768;54.148;12.174;2023-07-29T18:52:07;100452.09;;;22.08;80.68
53514;BME280;39768;54.148;12.174;2023-07-29T18:56:09;100436.69;;;21.86;82.80
53514;BME280;39768;54.148;12.174;2023-07-29T19:00:11;100439.72;;;21.83;83.05
53514;BME280;39768;54.148;12.174;2023-07-29T19:04:12;100445.19;;;21.72;84.09
53514;BME280;39768;54.148;12.174;2023-07-29T19:08:17;100447.25;;;21.59;84.31
53514;BME280;39768;54.148;12.174;2023-07-29T19:12:19;100449.81;;;21.40;85.75
53514;BME280;39768;54.148;12.174;2023-07-29T19:16:21;100452.44;;;21.30;87.56
53514;BME280;39768;54.148;12.174;2023-07-29T19:20:22;100455.38;;;21.38;86.65
53514;BME280;39768;54.148;12.174;2023-07-29T19:24:24;100464.13;;;21.42;86.60
53514;BME280;39768;54.148;12.174;2023-07-29T19:28:25;100469.34;;;20.79;89.05
53514;BME280;39768;54.148;12.174;2023-07-29T19:32:27;100482.81;;;20.81;90.33
53514;BME280;39768;54.148;12.174;2023-07-29T19:36:28;100478.44;;;21.00;89.18
53514;BME280;39768;54.148;12.174;2023-07-29T19:40:33;100485.59;;;21.02;89.93
53514;BME280;39768;54.148;12.174;2023-07-29T19:44:38;100493.63;;;21.37;86.74
53514;BME280;39768;54.148;12.174;2023-07-29T19:48:39;100491.97;;;21.45;86.65
53514;BME280;39768;54.148;12.174;2023-07-29T19:52:41;100493.88;;;21.22;88.39
53514;BME280;39768;54.148;12.174;2023-07-29T19:56:42;100502.31;;;20.75;90.13
53514;BME280;39768;54.148;12.174;2023-07-29T20:00:51;100495.97;;;21.19;87.32
53514;BME280;39768;54.148;12.174;2023-07-29T20:04:52;100499.59;;;21.08;89.28
53514;BME280;39768;54.148;12.174;2023-07-29T20:08:56;100498.84;;;21.06;89.16
53514;BME280;39768;54.148;12.174;2023-07-29T20:12:57;100508.28;;;20.80;91.02
53514;BME280;39768;54.148;12.174;2023-07-29T20:16:59;100500.59;;;20.62;92.81
53514;BME280;39768;54.148;12.174;2023-07-29T20:21:00;100503.78;;;20.68;92.34
53514;BME280;39768;54.148;12.174;2023-07-29T20:25:02;100515.28;;;20.71;93.09
53514;BME280;39768;54.148;12.174;2023-07-29T20:29:04;100512.66;;;20.47;94.88
53514;BME280;39768;54.148;12.174;2023-07-29T20:33:05;100506.47;;;20.34;96.62
53514;BME280;39768;54.148;12.174;2023-07-29T20:37:08;100518.66;;;20.17;98.39
53514;BME280;39768;54.148;12.174;2023-07-29T20:41:10;100521.59;;;20.14;99.27
53514;BME280;39768;54.148;12.174;2023-07-29T20:45:11;100520.13;;;19.39;100.00
53514;BME280;39768;54.148;12.174;2023-07-29T20:49:13;100509.84;;;19.79;100.00
53514;BME280;39768;54.148;12.174;2023-07-29T20:53:14;100509.06;;;19.42;100.00
53514;BME280;39768;54.148;12.174;2023-07-29T20:57:16;100518.44;;;19.62;100.00
53514;BME280;39768;54.148;12.174;2023-07-29T21:01:17;100518.16;;;19.65;100.00
53514;BME280;39768;54.148;12.174;2023-07-29T21:05:19;100516.38;;;19.29;100.00
53514;BME280;39768;54.148;12.174;2023-07-29T21:09:21;100520.91;;;19.41;100.00